createdAt,value
2022-11-18T00:01:30.434Z,1.00
2022-11-18T00:03:58.779Z,1.37
2022-11-18T00:06:29.394Z,1.73
2022-11-18T00:08:59.657Z,1.93
2022-11-18T00:11:46.881Z,2.30
2022-11-18T00:14:23.654Z,2.87
2022-11-18T00:16:55.517Z,2.93
2022-11-18T00:19:26.239Z,2.57
2022-11-18T00:21:54.970Z,1.43
2022-11-18T00:24:23.731Z,1.43
2022-11-18T00:26:53.645Z,0.70
2022-11-18T00:29:22.244Z,0.60
2022-11-18T00:31:54.472Z,0.40
2022-11-18T00:34:22.851Z,1.70
2022-11-18T00:36:51.442Z,1.17
2022-11-18T00:39:21.506Z,0.63
2022-11-18T00:42:08.089Z,0.77
2022-11-18T00:44:37.843Z,1.50
2022-11-18T00:47:06.795Z,2.17
2022-11-18T00:49:35.078Z,2.10
2022-11-18T00:52:03.425Z,1.37
2022-11-18T00:54:31.725Z,1.27
2022-11-18T00:57:00.150Z,0.87
2022-11-18T00:59:28.422Z,2.30
2022-11-18T01:01:58.015Z,1.50
2022-11-18T01:04:26.259Z,1.53
2022-11-18T01:06:54.585Z,0.70
2022-11-18T01:09:22.919Z,0.83
2022-11-18T01:12:08.393Z,0.80
2022-11-18T01:14:36.854Z,1.27
2022-11-18T01:17:06.456Z,0.77
2022-11-18T01:19:53.028Z,0.60
2022-11-18T01:22:21.293Z,0.40
2022-11-18T01:24:49.579Z,1.17
2022-11-18T01:27:17.802Z,0.50
2022-11-18T01:29:46.068Z,1.90
2022-11-18T01:32:24.381Z,0.93
2022-11-18T01:34:52.978Z,1.57
2022-11-18T01:37:21.461Z,0.67
2022-11-18T01:39:49.749Z,1.20
2022-11-18T01:42:19.036Z,0.70
2022-11-18T01:45:16.870Z,1.50
2022-11-18T01:47:53.362Z,0.57
2022-11-18T01:50:23.779Z,0.90
2022-11-18T01:52:54.006Z,0.80
2022-11-18T01:55:26.365Z,0.40
2022-11-18T01:58:04.188Z,1.13
2022-11-18T02:00:32.469Z,0.63
2022-11-18T02:03:03.195Z,2.17
2022-11-18T02:05:33.872Z,0.40
2022-11-18T02:08:03.019Z,0.90
2022-11-18T02:10:31.213Z,1.53
2022-11-18T02:13:00.230Z,0.83
2022-11-18T02:15:44.118Z,0.40
2022-11-18T02:18:25.858Z,0.80
2022-11-18T02:20:58.524Z,1.43
2022-11-18T02:24:02.223Z,1.60
2022-11-18T02:27:06.912Z,1.73
2022-11-18T02:29:43.422Z,0.80
2022-11-18T02:32:15.066Z,0.87
2022-11-18T02:34:50.838Z,1.27
2022-11-18T02:37:24.302Z,2.50
2022-11-18T02:39:59.538Z,1.30
2022-11-18T02:42:31.822Z,1.40
2022-11-18T02:45:06.698Z,2.73
2022-11-18T02:47:37.632Z,1.97
2022-11-18T02:50:10.424Z,0.77
2022-11-18T02:52:41.501Z,1.13
2022-11-18T02:55:13.171Z,0.53
2022-11-18T02:57:43.446Z,0.83
2022-11-18T03:00:14.571Z,1.17
2022-11-18T03:02:44.634Z,0.63
2022-11-18T03:05:21.750Z,0.50
2022-11-18T03:07:56.019Z,0.50
2022-11-18T03:10:27.756Z,0.40
2022-11-18T03:13:07.380Z,0.60
2022-11-18T03:15:47.307Z,0.60
2022-11-18T03:18:21.715Z,0.43
2022-11-18T03:20:54.080Z,0.67
2022-11-18T03:23:29.593Z,0.30
2022-11-18T03:26:02.496Z,0.77
2022-11-18T03:28:38.013Z,0.33
2022-11-18T03:31:16.069Z,0.30
2022-11-18T03:33:48.872Z,1.13
2022-11-18T03:36:21.229Z,0.60
2022-11-18T03:38:52.568Z,1.37
2022-11-18T03:41:25.504Z,0.60
2022-11-18T03:43:58.856Z,1.10
2022-11-18T03:46:32.814Z,1.00
2022-11-18T03:49:01.454Z,1.50
2022-11-18T03:51:37.267Z,0.30
2022-11-18T03:54:12.155Z,1.07
2022-11-18T03:56:45.422Z,0.60
2022-11-18T03:59:17.836Z,0.97
2022-11-18T04:01:54.004Z,0.97
2022-11-18T04:04:23.565Z,0.40
2022-11-18T04:06:56.496Z,0.60
2022-11-18T04:09:28.740Z,0.30
2022-11-18T04:12:05.971Z,0.50
2022-11-18T04:14:36.459Z,0.30
2022-11-18T04:17:10.589Z,0.60
2022-11-18T04:19:38.993Z,0.30
2022-11-18T04:22:10.810Z,0.50
2022-11-18T04:24:39.298Z,0.40
2022-11-18T04:27:07.900Z,0.33
2022-11-18T04:29:36.338Z,1.33
2022-11-18T04:32:05.809Z,0.50
2022-11-18T04:34:35.444Z,0.77
2022-11-18T04:37:03.721Z,0.30
2022-11-18T04:39:32.177Z,0.33
2022-11-18T04:42:00.418Z,0.27
2022-11-18T04:44:30.206Z,0.53
2022-11-18T04:46:59.845Z,0.30
2022-11-18T04:49:28.896Z,0.20
2022-11-18T04:51:59.048Z,0.40
2022-11-18T04:54:28.651Z,0.30
2022-11-18T04:56:57.650Z,0.47
2022-11-18T04:59:27.744Z,0.77
2022-11-18T05:01:56.576Z,0.57
2022-11-18T05:04:26.649Z,0.30
2022-11-18T05:06:55.276Z,0.30
2022-11-18T05:09:30.310Z,0.60
2022-11-18T05:12:17.380Z,0.50
2022-11-18T05:14:49.994Z,0.40
2022-11-18T05:17:19.541Z,1.17
2022-11-18T05:19:47.781Z,0.83
2022-11-18T05:22:16.438Z,0.60
2022-11-18T05:24:46.270Z,0.50
2022-11-18T05:27:15.036Z,0.40
2022-11-18T05:29:43.335Z,0.30
2022-11-18T05:32:11.969Z,0.60
2022-11-18T05:34:40.991Z,0.97
2022-11-18T05:37:09.548Z,0.40
2022-11-18T05:39:37.809Z,0.77
2022-11-18T05:42:25.062Z,0.60
2022-11-18T05:44:58.054Z,0.40
2022-11-18T05:47:27.312Z,0.70
2022-11-18T05:49:55.606Z,0.50
2022-11-18T05:52:23.802Z,0.50
2022-11-18T05:54:52.843Z,0.60
2022-11-18T05:57:22.500Z,0.80
2022-11-18T05:59:50.705Z,0.70
2022-11-18T06:02:24.075Z,0.70
2022-11-18T06:04:55.789Z,1.27
2022-11-18T06:07:27.446Z,0.30
2022-11-18T06:10:05.004Z,0.70
2022-11-18T06:12:38.590Z,0.87
2022-11-18T06:15:13.368Z,0.40
2022-11-18T06:17:47.134Z,0.43
2022-11-18T06:20:15.812Z,1.27
2022-11-18T06:22:46.707Z,0.60
2022-11-18T06:25:15.824Z,0.37
2022-11-18T06:27:46.967Z,0.47
2022-11-18T06:30:15.946Z,0.87
2022-11-18T06:32:44.403Z,0.40
2022-11-18T06:35:12.980Z,0.60
2022-11-18T06:37:41.329Z,0.40
2022-11-18T06:40:10.735Z,0.40
2022-11-18T06:42:56.095Z,0.53
2022-11-18T06:45:25.862Z,0.40
2022-11-18T06:47:57.149Z,0.83
2022-11-18T06:50:25.602Z,1.23
2022-11-18T06:52:53.958Z,0.87
2022-11-18T06:55:22.213Z,0.57
2022-11-18T06:57:50.645Z,0.30
2022-11-18T07:00:20.154Z,0.83
2022-11-18T07:02:49.936Z,0.50
2022-11-18T07:05:18.376Z,1.60
2022-11-18T07:07:46.765Z,0.50
2022-11-18T07:10:15.064Z,1.20
2022-11-18T07:12:43.321Z,0.70
2022-11-18T07:15:12.097Z,0.47
2022-11-18T07:17:40.279Z,0.50
2022-11-18T07:20:11.287Z,0.97
2022-11-18T07:22:39.541Z,0.83
2022-11-18T07:25:08.174Z,0.97
2022-11-18T07:27:36.394Z,1.40
2022-11-18T07:30:05.037Z,1.03
2022-11-18T07:32:34.726Z,0.40
2022-11-18T07:35:02.981Z,1.43
2022-11-18T07:37:32.618Z,0.60
2022-11-18T07:40:00.997Z,1.23
2022-11-18T07:42:29.250Z,0.40
2022-11-18T07:44:57.503Z,1.07
2022-11-18T07:47:25.795Z,0.30
2022-11-18T07:49:54.153Z,0.40
2022-11-18T07:52:22.381Z,0.30
2022-11-18T07:54:52.002Z,0.97
2022-11-18T07:57:20.218Z,0.43
2022-11-18T07:59:48.498Z,0.50
2022-11-18T08:02:16.798Z,0.60
2022-11-18T08:04:45.096Z,0.30
2022-11-18T08:07:13.419Z,0.60
2022-11-18T08:09:41.753Z,0.70
2022-11-18T08:12:11.422Z,0.20
2022-11-18T08:14:39.717Z,0.40
2022-11-18T08:17:08.224Z,1.07
2022-11-18T08:19:37.558Z,0.70
2022-11-18T08:22:05.855Z,1.27
2022-11-18T08:24:34.207Z,0.47
2022-11-18T08:27:02.373Z,0.30
2022-11-18T08:29:31.960Z,0.67
2022-11-18T08:32:00.161Z,0.30
2022-11-18T08:34:28.355Z,0.40
2022-11-18T08:36:56.850Z,0.83
2022-11-18T08:39:25.166Z,0.70
2022-11-18T08:41:53.415Z,1.00
2022-11-18T08:44:21.699Z,1.50
2022-11-18T08:46:51.428Z,0.57
2022-11-18T08:49:19.933Z,0.50
2022-11-18T08:51:48.414Z,0.57
2022-11-18T08:54:16.654Z,1.17
2022-11-18T08:56:44.870Z,0.83
2022-11-18T08:59:13.459Z,0.70
2022-11-18T09:01:43.823Z,0.70
2022-11-18T09:04:13.465Z,0.83
2022-11-18T09:06:41.909Z,2.47
2022-11-18T09:09:10.556Z,1.37
2022-11-18T09:11:40.447Z,0.70
2022-11-18T09:16:56.961Z,0.40
2022-11-18T09:22:15.027Z,1.13
2022-11-18T09:24:43.739Z,0.80
2022-11-18T09:27:16.718Z,0.70
2022-11-18T09:29:45.963Z,0.50
2022-11-18T09:32:14.488Z,0.77
2022-11-18T09:34:44.120Z,1.00
2022-11-18T09:37:12.962Z,0.77
2022-11-18T09:39:41.221Z,0.50
2022-11-18T09:42:22.395Z,1.43
2022-11-18T09:45:08.630Z,2.40
2022-11-18T09:47:40.487Z,0.50
2022-11-18T09:50:47.682Z,0.70
2022-11-18T09:53:10.427Z,1.47
2022-11-18T09:55:41.143Z,0.90
2022-11-18T09:58:16.958Z,1.27
2022-11-18T10:00:46.301Z,1.20
2022-11-18T10:03:28.351Z,0.47
2022-11-18T10:06:02.940Z,1.13
2022-11-18T10:08:37.286Z,1.10
2022-11-18T10:11:14.813Z,1.53
2022-11-18T10:13:56.228Z,1.60
2022-11-18T10:16:37.914Z,2.10
2022-11-18T10:19:20.548Z,0.80
2022-11-18T10:22:00.774Z,1.10
2022-11-18T10:24:34.242Z,0.43
2022-11-18T10:27:02.741Z,0.87
2022-11-18T10:29:31.031Z,1.47
2022-11-18T10:32:04.764Z,0.57
2022-11-18T10:34:34.978Z,1.37
2022-11-18T10:37:09.046Z,0.60
2022-11-18T10:39:51.392Z,0.33
2022-11-18T10:42:26.630Z,2.50
2022-11-18T10:44:55.111Z,0.87
2022-11-18T10:47:29.296Z,1.33
2022-11-18T10:49:59.881Z,0.70
2022-11-18T10:52:31.114Z,1.17
2022-11-18T10:55:21.491Z,0.73
2022-11-18T10:57:52.580Z,0.30
2022-11-18T11:00:42.695Z,0.73
2022-11-18T11:03:33.368Z,0.50
2022-11-18T11:06:32.408Z,1.13
2022-11-18T11:09:06.181Z,2.30
2022-11-18T11:11:35.998Z,2.63
2022-11-18T11:14:15.279Z,0.73
2022-11-18T11:16:49.996Z,1.43
2022-11-18T11:19:24.263Z,0.70
2022-11-18T11:21:53.044Z,1.40
2022-11-18T11:24:26.451Z,0.90
2022-11-18T11:30:17.205Z,1.77
2022-11-18T11:33:11.591Z,0.90
2022-11-18T11:35:49.284Z,0.87
2022-11-18T11:38:25.339Z,2.57
2022-11-18T11:41:05.163Z,1.50
2022-11-18T11:43:44.027Z,1.57
2022-11-18T11:46:29.336Z,2.63
2022-11-18T11:49:03.923Z,0.53
2022-11-18T11:51:41.349Z,2.53
2022-11-18T11:54:24.623Z,1.83
2022-11-18T11:56:59.223Z,1.20
2022-11-18T11:59:33.931Z,1.33
2022-11-18T12:02:36.313Z,0.87
2022-11-18T12:05:18.730Z,2.07
2022-11-18T12:07:51.085Z,1.73
2022-11-18T12:10:29.177Z,0.80
2022-11-18T12:13:12.184Z,1.50
2022-11-18T12:15:54.746Z,1.27
2022-11-18T12:18:31.827Z,0.50
2022-11-18T12:21:00.167Z,0.80
2022-11-18T12:23:29.590Z,2.20
2022-11-18T12:26:02.664Z,0.90
2022-11-18T12:28:34.654Z,0.63
2022-11-18T12:31:42.429Z,1.00
2022-11-18T12:34:40.716Z,1.47
2022-11-18T12:37:54.665Z,1.03
2022-11-18T12:40:41.325Z,1.63
2022-11-18T12:44:05.229Z,1.20
2022-11-18T12:46:55.728Z,1.00
2022-11-18T12:50:12.905Z,1.00
2022-11-18T12:52:52.867Z,0.70
2022-11-18T12:55:38.716Z,2.10
2022-11-18T12:58:23.603Z,1.07
2022-11-18T13:00:55.094Z,2.10
2022-11-18T13:03:28.949Z,2.13
2022-11-18T13:06:09.566Z,1.50
2022-11-18T13:08:38.991Z,1.10
2022-11-18T13:11:29.641Z,1.37
2022-11-18T13:14:11.767Z,0.50
2022-11-18T13:16:58.546Z,0.93
2022-11-18T13:19:28.210Z,3.27
2022-11-18T13:22:14.393Z,0.90
2022-11-18T13:24:47.077Z,0.70
2022-11-18T13:27:35.674Z,1.90
2022-11-18T13:30:08.544Z,0.30
2022-11-18T13:32:36.825Z,1.63
2022-11-18T13:35:14.630Z,1.43
2022-11-18T13:37:52.041Z,0.97
2022-11-18T13:40:22.488Z,0.80
2022-11-18T13:42:51.708Z,2.33
2022-11-18T13:45:21.571Z,0.50
2022-11-18T13:47:53.981Z,1.50
2022-11-18T13:50:31.602Z,0.70
2022-11-18T13:56:04.900Z,1.00
2022-11-18T13:59:02.540Z,0.90
2022-11-18T14:01:29.496Z,0.77
2022-11-18T14:04:00.604Z,2.20
2022-11-18T14:06:32.178Z,2.37
2022-11-18T14:09:08.403Z,1.50
2022-11-18T14:11:38.742Z,1.13
2022-11-18T14:14:07.872Z,0.30
2022-11-18T14:16:37.745Z,0.70
2022-11-18T14:19:06.564Z,0.83
2022-11-18T14:21:38.345Z,0.70
2022-11-18T14:24:07.226Z,1.77
2022-11-18T14:26:37.359Z,1.97
2022-11-18T14:29:21.329Z,1.30
2022-11-18T14:32:14.921Z,1.17
2022-11-18T14:34:43.216Z,1.70
2022-11-18T14:37:14.824Z,0.63
2022-11-18T14:39:43.314Z,4.33
2022-11-18T14:42:14.286Z,1.60
2022-11-18T14:44:42.501Z,1.80
2022-11-18T14:47:19.627Z,1.80
2022-11-18T14:49:47.857Z,0.50
2022-11-18T14:52:17.534Z,0.77
2022-11-18T14:54:45.760Z,1.90
2022-11-18T14:57:17.442Z,1.53
2022-11-18T14:59:46.145Z,2.47
2022-11-18T15:02:16.752Z,2.77
2022-11-18T15:04:45.460Z,0.90
2022-11-18T15:07:20.098Z,0.93
2022-11-18T15:09:52.643Z,2.20
2022-11-18T15:12:20.920Z,1.10
2022-11-18T15:14:49.204Z,1.50
2022-11-18T15:17:20.464Z,1.63
2022-11-18T15:19:48.871Z,1.40
2022-11-18T15:22:17.342Z,1.30
2022-11-18T15:24:45.653Z,2.20
2022-11-18T15:27:15.324Z,1.63
2022-11-18T15:29:43.702Z,2.47
2022-11-18T15:32:11.996Z,1.40
2022-11-18T15:34:40.187Z,2.10
2022-11-18T15:37:08.574Z,2.70
2022-11-18T15:39:36.846Z,1.67
2022-11-18T15:42:05.220Z,1.80
2022-11-18T15:44:35.047Z,2.77
2022-11-18T15:47:03.572Z,3.83
2022-11-18T15:49:31.954Z,3.33
2022-11-18T15:52:00.236Z,2.13
2022-11-18T15:54:28.707Z,4.17
2022-11-18T15:56:56.996Z,1.17
2022-11-18T15:59:25.698Z,2.73
2022-11-18T16:01:56.709Z,9.13
2022-11-18T16:04:35.259Z,6.03
2022-11-18T16:07:04.048Z,4.23
2022-11-18T16:09:46.361Z,5.27
2022-11-18T16:12:32.045Z,3.87
2022-11-18T16:15:14.215Z,2.60
2022-11-18T16:17:44.281Z,3.90
2022-11-18T16:20:12.752Z,2.17
2022-11-18T16:22:41.509Z,2.57
2022-11-18T16:25:10.803Z,2.80
2022-11-18T16:27:39.109Z,2.70
2022-11-18T16:30:08.159Z,1.63
2022-11-18T16:32:35.546Z,4.03
2022-11-18T16:35:05.999Z,1.80
2022-11-18T16:37:34.454Z,1.67
2022-11-18T16:40:02.879Z,5.83
2022-11-18T16:42:31.243Z,5.33
2022-11-18T16:44:59.616Z,4.47
2022-11-18T16:47:28.144Z,3.43
2022-11-18T16:49:56.806Z,2.37
2022-11-18T16:52:26.507Z,3.17
2022-11-18T16:54:54.730Z,2.57
2022-11-18T16:57:24.349Z,6.37
2022-11-18T16:59:52.643Z,6.97
2022-11-18T17:02:21.082Z,4.77
2022-11-18T17:04:49.359Z,4.23
2022-11-18T17:07:17.934Z,2.20
2022-11-18T17:09:47.592Z,2.87
2022-11-18T17:12:15.966Z,4.43
2022-11-18T17:14:44.340Z,7.63
2022-11-18T17:17:12.787Z,9.27
2022-11-18T17:19:41.129Z,8.70
2022-11-18T17:22:09.338Z,6.47
2022-11-18T17:24:37.663Z,4.10
2022-11-18T17:27:07.320Z,5.47
2022-11-18T17:29:35.767Z,7.40
2022-11-18T17:32:04.294Z,6.50
2022-11-18T17:34:32.637Z,6.03
2022-11-18T17:37:06.411Z,4.57
2022-11-18T17:39:35.366Z,5.13
2022-11-18T17:42:15.750Z,7.20
2022-11-18T17:44:45.738Z,5.43
2022-11-18T17:47:14.079Z,2.77
2022-11-18T17:49:42.347Z,7.97
2022-11-18T17:52:10.891Z,6.90
2022-11-18T17:54:39.176Z,4.13
2022-11-18T17:57:07.510Z,3.97
2022-11-18T17:59:35.752Z,3.27
2022-11-18T18:02:05.460Z,3.10
2022-11-18T18:04:33.839Z,2.33
2022-11-18T18:07:03.061Z,5.97
2022-11-18T18:09:31.648Z,4.73
2022-11-18T18:12:01.018Z,4.80
2022-11-18T18:14:28.418Z,3.80
2022-11-18T18:16:57.269Z,3.70
2022-11-18T18:19:27.522Z,1.73
2022-11-18T18:21:56.017Z,2.80
2022-11-18T18:24:25.034Z,1.90
2022-11-18T18:26:53.543Z,1.97
2022-11-18T18:29:22.491Z,2.20
2022-11-18T18:31:51.122Z,1.50
2022-11-18T18:34:19.924Z,2.33
2022-11-18T18:36:50.082Z,2.00
2022-11-18T18:39:18.520Z,1.83
2022-11-18T18:41:47.058Z,1.97
2022-11-18T18:44:18.840Z,2.73
2022-11-18T18:46:46.790Z,2.50
2022-11-18T18:49:20.643Z,3.10
2022-11-18T18:51:55.982Z,2.37
2022-11-18T18:54:24.590Z,5.00
2022-11-18T18:56:53.239Z,5.07
2022-11-18T18:59:21.531Z,4.20
2022-11-18T19:01:50.107Z,2.50
2022-11-18T19:04:18.970Z,1.97
2022-11-18T19:06:56.730Z,2.17
2022-11-18T19:09:29.353Z,2.90
2022-11-18T19:12:15.027Z,3.27
2022-11-18T19:14:44.205Z,1.93
2022-11-18T19:17:13.206Z,1.73
2022-11-18T19:20:00.121Z,0.87
2022-11-18T19:22:30.748Z,1.07
2022-11-18T19:25:01.552Z,4.30
2022-11-18T19:27:31.228Z,1.00
2022-11-18T19:30:00.836Z,3.00
2022-11-18T19:32:29.409Z,1.00
2022-11-18T19:34:57.808Z,0.73
2022-11-18T19:37:26.364Z,2.47
2022-11-18T19:39:55.048Z,0.50
2022-11-18T19:42:24.853Z,1.77
2022-11-18T19:44:53.323Z,1.13
2022-11-18T19:47:21.724Z,1.83
2022-11-18T19:49:50.201Z,3.37
2022-11-18T19:52:18.446Z,2.30
2022-11-18T19:54:46.742Z,2.23
2022-11-18T19:57:15.195Z,1.57
2022-11-18T19:59:46.310Z,1.23
2022-11-18T20:02:15.285Z,1.73
2022-11-18T20:05:04.701Z,2.63
2022-11-18T20:07:32.993Z,1.57
2022-11-18T20:10:01.324Z,1.97
2022-11-18T20:12:30.384Z,1.23
2022-11-18T20:15:00.024Z,4.13
2022-11-18T20:17:28.344Z,4.97
2022-11-18T20:19:56.927Z,1.50
2022-11-18T20:22:25.327Z,1.60
2022-11-18T20:24:54.243Z,3.07
2022-11-18T20:27:22.616Z,1.20
2022-11-18T20:29:51.026Z,1.07
2022-11-18T20:32:21.659Z,1.17
2022-11-18T20:34:50.045Z,1.50
2022-11-18T20:37:19.061Z,1.70
2022-11-18T20:39:47.302Z,0.87
2022-11-18T20:42:33.042Z,0.43
2022-11-18T20:45:01.299Z,0.60
2022-11-18T20:47:30.976Z,1.77
2022-11-18T20:49:59.400Z,1.43
2022-11-18T20:52:28.111Z,0.97
2022-11-18T20:54:58.241Z,3.23
2022-11-18T20:57:29.905Z,0.80
2022-11-18T20:59:58.237Z,0.87
2022-11-18T21:02:26.588Z,3.20
2022-11-18T21:04:56.269Z,2.97
2022-11-18T21:07:24.564Z,2.03
2022-11-18T21:09:52.853Z,1.87
2022-11-18T21:12:21.189Z,1.70
2022-11-18T21:14:48.987Z,4.17
2022-11-18T21:17:17.616Z,4.53
2022-11-18T21:19:48.519Z,1.83
2022-11-18T21:22:17.321Z,1.20
2022-11-18T21:24:45.592Z,1.63
2022-11-18T21:27:15.589Z,1.37
2022-11-18T21:29:46.470Z,1.27
2022-11-18T21:32:14.724Z,1.60
2022-11-18T21:34:43.014Z,0.63
2022-11-18T21:37:11.318Z,0.93
2022-11-18T21:39:40.964Z,0.33
2022-11-18T21:42:09.187Z,0.60
2022-11-18T21:44:37.488Z,0.30
2022-11-18T21:47:05.781Z,0.40
2022-11-18T21:49:33.971Z,0.40
2022-11-18T21:52:02.141Z,0.30
2022-11-18T21:54:30.599Z,0.93
2022-11-18T21:57:00.229Z,0.70
2022-11-18T21:59:28.383Z,0.67
2022-11-18T22:01:56.597Z,0.80
2022-11-18T22:04:42.327Z,0.50
2022-11-18T22:07:10.540Z,1.00
2022-11-18T22:09:38.939Z,1.20
2022-11-18T22:12:08.986Z,0.83
2022-11-18T22:14:37.670Z,0.50
2022-11-18T22:17:06.198Z,0.43
2022-11-18T22:19:34.702Z,0.90
2022-11-18T22:22:03.162Z,1.13
2022-11-18T22:24:31.601Z,0.97
2022-11-18T22:26:59.809Z,0.30
2022-11-18T22:29:29.398Z,0.50
2022-11-18T22:31:57.967Z,0.97
2022-11-18T22:34:26.590Z,0.90
2022-11-18T22:36:54.806Z,1.70
2022-11-18T22:39:23.196Z,0.40
2022-11-18T22:42:08.702Z,1.43
2022-11-18T22:44:38.413Z,1.87
2022-11-18T22:47:06.734Z,0.80
2022-11-18T22:49:35.024Z,1.07
2022-11-18T22:52:03.614Z,0.40
2022-11-18T22:54:38.915Z,0.70
2022-11-18T22:57:08.116Z,0.60
2022-11-18T22:59:37.765Z,0.43
2022-11-18T23:02:06.080Z,0.40
2022-11-18T23:04:34.400Z,0.50
2022-11-18T23:07:02.799Z,0.60
2022-11-18T23:09:31.651Z,0.30
2022-11-18T23:12:17.126Z,0.50
2022-11-18T23:14:47.218Z,0.30
2022-11-18T23:17:16.190Z,0.30
2022-11-18T23:19:44.733Z,0.50
2022-11-18T23:22:13.176Z,1.23
2022-11-18T23:24:41.647Z,2.60
2022-11-18T23:27:10.136Z,1.83
2022-11-18T23:29:38.675Z,1.03
2022-11-18T23:32:08.316Z,2.13
2022-11-18T23:34:36.587Z,1.73
2022-11-18T23:37:05.246Z,1.13
2022-11-18T23:39:33.490Z,0.30
2022-11-18T23:42:01.727Z,0.40
2022-11-18T23:44:50.344Z,0.80
2022-11-18T23:47:20.415Z,0.37
2022-11-18T23:49:48.720Z,0.60
2022-11-18T23:52:17.133Z,0.70
2022-11-18T23:54:45.333Z,1.37
2022-11-18T23:57:13.686Z,0.57
2022-11-18T23:59:41.918Z,1.67
